Time;durP1;ratioP1;P1;durP2;ratioP2;P2;SDS_P1;SDS_P2;PMS_P1;PMS_P2;Temp;Humidity;BMP_temperature;BMP_pressure;BME280_temperature;BME280_humidity;BME280_pressure;Samples;Min_cycle;Max_cycle;Signal;HPM_P1;HPM_P2
2023/04/19 00:01:32;;;;;;;3.25;2.97;;;14.10;99.90;;;;;;5078862;28;20777;-69
2023/04/19 00:03:59;;;;;;;3.47;3.17;;;14.10;99.90;;;;;;5077526;28;20251;-68
2023/04/19 00:06:29;;;;;;;3.72;3.42;;;14.00;99.90;;;;;;5078678;28;20217;-65
2023/04/19 00:08:56;;;;;;;3.30;3.00;;;13.90;99.90;;;;;;5079727;28;20856;-66
2023/04/19 00:11:23;;;;;;;3.05;2.85;;;13.90;99.90;;;;;;5078210;28;20225;-67
2023/04/19 00:13:50;;;;;;;3.30;3.03;;;13.80;99.90;;;;;;5082381;28;20221;-69
2023/04/19 00:16:18;;;;;;;3.20;2.90;;;13.80;99.90;;;;;;5080071;28;20206;-69
2023/04/19 00:18:47;;;;;;;3.58;3.35;;;13.80;99.90;;;;;;5079775;28;20284;-68
2023/04/19 00:21:15;;;;;;;3.75;3.45;;;13.70;99.90;;;;;;5080089;28;20217;-68
2023/04/19 00:23:42;;;;;;;3.00;2.80;;;13.70;99.90;;;;;;5077008;28;20205;-68
2023/04/19 00:26:10;;;;;;;3.47;3.20;;;13.60;99.90;;;;;;5079512;28;20285;-68
2023/04/19 00:28:37;;;;;;;3.47;3.17;;;13.60;99.90;;;;;;5078991;28;20205;-68
2023/04/19 00:31:04;;;;;;;3.30;3.00;;;13.60;99.90;;;;;;5081466;28;20217;-69
2023/04/19 00:33:33;;;;;;;3.90;3.55;;;13.60;99.90;;;;;;5075765;28;20236;-68
2023/04/19 00:36:00;;;;;;;3.67;3.28;;;13.50;99.90;;;;;;5075267;28;20812;-68
2023/04/19 00:38:27;;;;;;;3.55;3.25;;;13.40;99.90;;;;;;5077950;28;20289;-69
2023/04/19 00:40:54;;;;;;;3.85;3.55;;;13.40;99.90;;;;;;5076644;28;20248;-68
2023/04/19 00:43:21;;;;;;;3.78;3.47;;;13.30;99.90;;;;;;5078144;28;20233;-69
2023/04/19 00:45:49;;;;;;;3.88;3.58;;;13.30;99.90;;;;;;5080589;28;20217;-69
2023/04/19 00:48:16;;;;;;;3.72;3.42;;;13.20;99.90;;;;;;5076450;28;20277;-69
2023/04/19 00:50:45;;;;;;;4.57;4.18;;;13.10;99.90;;;;;;5080828;28;20290;-68
2023/04/19 00:53:12;;;;;;;5.32;4.35;;;13.00;99.90;;;;;;5077916;28;20200;-68
2023/04/19 00:55:39;;;;;;;3.97;3.67;;;12.90;99.90;;;;;;5078120;28;20206;-69
2023/04/19 00:58:07;;;;;;;4.43;4.03;;;12.90;99.90;;;;;;5082151;28;20267;-68
2023/04/19 01:00:34;;;;;;;3.85;3.55;;;12.80;99.90;;;;;;5077179;28;20237;-70
2023/04/19 01:03:01;;;;;;;3.95;3.65;;;12.80;99.90;;;;;;5077938;28;20198;-69
2023/04/19 01:05:28;;;;;;;4.05;3.65;;;12.80;99.90;;;;;;5077295;28;20207;-68
2023/04/19 01:07:56;;;;;;;4.07;3.67;;;12.70;99.90;;;;;;5081215;28;20229;-67
2023/04/19 01:10:23;;;;;;;3.38;3.08;;;12.60;99.90;;;;;;5072741;28;20297;-69
2023/04/19 01:12:50;;;;;;;5.00;3.38;;;12.50;99.90;;;;;;5079755;28;20317;-68
2023/04/19 01:15:17;;;;;;;3.45;3.00;;;12.50;99.90;;;;;;5076726;28;20281;-68
2023/04/19 01:17:44;;;;;;;3.05;2.85;;;12.50;99.90;;;;;;5079171;28;20240;-68
2023/04/19 01:20:12;;;;;;;3.50;3.20;;;12.50;99.90;;;;;;5076718;28;20257;-68
2023/04/19 01:22:40;;;;;;;3.53;3.22;;;12.50;99.90;;;;;;5074517;28;20225;-68
2023/04/19 01:25:09;;;;;;;3.13;2.92;;;12.50;99.90;;;;;;5079096;28;20201;-68
2023/04/19 01:27:36;;;;;;;3.17;2.95;;;12.50;99.90;;;;;;5079744;28;20887;-69
2023/04/19 01:30:03;;;;;;;2.72;2.53;;;12.50;99.90;;;;;;5081652;28;20691;-69
2023/04/19 01:32:30;;;;;;;3.28;2.97;;;12.50;99.90;;;;;;5079739;28;20430;-68
2023/04/19 01:34:56;;;;;;;3.40;3.10;;;12.50;99.90;;;;;;5079027;28;20297;-68
2023/04/19 01:37:23;;;;;;;3.55;3.30;;;12.50;99.90;;;;;;5077525;28;20582;-68
2023/04/19 01:39:52;;;;;;;3.30;3.00;;;12.50;99.90;;;;;;5076414;28;20656;-68
2023/04/19 01:42:19;;;;;;;3.30;3.03;;;12.50;99.90;;;;;;5072610;28;20752;-69
2023/04/19 01:44:46;;;;;;;3.20;3.00;;;12.40;99.90;;;;;;5078261;28;20223;-69
2023/04/19 01:47:13;;;;;;;3.88;3.55;;;12.40;99.90;;;;;;5079205;28;20201;-69
2023/04/19 01:49:40;;;;;;;3.75;3.22;;;12.40;99.90;;;;;;5076456;28;20306;-68
2023/04/19 01:52:07;;;;;;;3.15;2.83;;;12.30;99.90;;;;;;5078499;28;20578;-68
2023/04/19 01:54:34;;;;;;;3.40;3.10;;;12.30;99.90;;;;;;5081741;28;20205;-67
2023/04/19 01:57:02;;;;;;;3.30;3.00;;;12.30;99.90;;;;;;5083469;28;20225;-68
2023/04/19 01:59:29;;;;;;;3.72;3.42;;;12.20;99.90;;;;;;5080288;28;20227;-68
2023/04/19 02:01:56;;;;;;;3.33;3.03;;;12.20;99.90;;;;;;5079636;28;20844;-69
2023/04/19 02:04:23;;;;;;;3.53;3.22;;;12.20;99.90;;;;;;5081803;28;20278;-68
2023/04/19 02:06:50;;;;;;;3.40;3.10;;;12.10;99.90;;;;;;5079520;28;20205;-69
2023/04/19 02:09:16;;;;;;;3.20;2.90;;;12.10;99.90;;;;;;5081785;28;20300;-68
2023/04/19 02:11:43;;;;;;;3.40;3.10;;;12.00;99.90;;;;;;5083110;28;20229;-68
2023/04/19 02:14:12;;;;;;;3.25;2.95;;;12.00;99.90;;;;;;5080841;28;20692;-70
2023/04/19 02:16:39;;;;;;;3.55;3.25;;;12.00;99.90;;;;;;5083355;28;20244;-67
2023/04/19 02:19:05;;;;;;;4.28;3.20;;;11.90;99.90;;;;;;5081819;28;20297;-68
2023/04/19 02:21:32;;;;;;;3.10;2.90;;;11.90;99.90;;;;;;5081815;28;20221;-68
2023/04/19 02:23:59;;;;;;;5.88;3.05;;;11.90;99.90;;;;;;5083213;28;20259;-67
2023/04/19 02:26:26;;;;;;;2.97;2.78;;;11.90;99.90;;;;;;5080777;28;20204;-68
2023/04/19 02:28:53;;;;;;;3.42;3.13;;;11.80;99.90;;;;;;5080466;28;20218;-69
2023/04/19 02:31:22;;;;;;;3.40;3.10;;;11.80;99.90;;;;;;5082217;28;20210;-68
2023/04/19 02:33:49;;;;;;;3.80;3.50;;;11.80;99.90;;;;;;5079528;28;20202;-68
2023/04/19 02:36:15;;;;;;;3.50;3.13;;;11.80;99.90;;;;;;5080592;28;20660;-68
2023/04/19 02:38:42;;;;;;;3.70;3.40;;;11.70;99.90;;;;;;5079511;28;20214;-69
2023/04/19 02:41:10;;;;;;;3.28;3.08;;;11.70;99.90;;;;;;5080882;28;20255;-68
2023/04/19 02:43:37;;;;;;;3.00;2.80;;;11.60;99.90;;;;;;5081039;28;20292;-69
2023/04/19 02:46:04;;;;;;;3.88;3.55;;;11.60;99.90;;;;;;5083060;28;20608;-69
2023/04/19 02:48:32;;;;;;;3.13;2.83;;;11.60;99.90;;;;;;5080979;28;20744;-67
2023/04/19 02:50:59;;;;;;;3.00;2.70;;;11.60;99.90;;;;;;5083800;28;20217;-68
2023/04/19 02:53:27;;;;;;;3.55;3.25;;;11.60;99.90;;;;;;5083528;28;20194;-68
2023/04/19 02:55:54;;;;;;;3.25;2.95;;;11.50;99.90;;;;;;5083854;28;20774;-69
2023/04/19 02:58:21;;;;;;;3.20;3.00;;;11.50;99.90;;;;;;5081796;28;20205;-68
2023/04/19 03:00:48;;;;;;;3.80;3.50;;;11.50;99.90;;;;;;5081364;28;20290;-67
2023/04/19 03:03:14;;;;;;;3.30;3.10;;;11.50;99.90;;;;;;5084484;28;20602;-70
2023/04/19 03:05:43;;;;;;;7.95;3.40;;;11.40;99.90;;;;;;5079012;28;20278;-68
2023/04/19 03:08:10;;;;;;;3.95;3.53;;;11.40;99.90;;;;;;5081688;28;20233;-68
2023/04/19 03:10:37;;;;;;;3.40;3.15;;;11.40;99.90;;;;;;5081913;28;20295;-69
2023/04/19 03:13:04;;;;;;;4.05;3.65;;;11.40;99.90;;;;;;5083345;28;20234;-68
2023/04/19 03:15:31;;;;;;;3.47;3.25;;;11.30;99.90;;;;;;5081834;28;20233;-69
2023/04/19 03:17:58;;;;;;;3.50;3.20;;;11.30;99.90;;;;;;5079920;28;20214;-68
2023/04/19 03:20:26;;;;;;;3.67;3.38;;;11.20;99.90;;;;;;5079309;28;20308;-68
2023/04/19 03:22:54;;;;;;;3.75;3.45;;;11.10;99.90;;;;;;5078411;28;20300;-68
2023/04/19 03:25:21;;;;;;;3.95;3.65;;;11.00;99.90;;;;;;5079955;28;20285;-69
2023/04/19 03:27:49;;;;;;;3.40;3.10;;;10.90;99.90;;;;;;5082728;28;20262;-68
2023/04/19 03:30:16;;;;;;;3.17;2.97;;;10.90;99.90;;;;;;5078129;28;20326;-68
2023/04/19 03:32:44;;;;;;;3.13;2.92;;;10.90;99.90;;;;;;5078838;28;20193;-68
2023/04/19 03:35:11;;;;;;;3.15;2.95;;;10.90;99.90;;;;;;5083240;28;20198;-68
2023/04/19 03:37:38;;;;;;;2.95;2.75;;;10.90;99.90;;;;;;5082140;28;20225;-68
2023/04/19 03:40:08;;;;;;;3.08;2.85;;;10.90;99.90;;;;;;5081248;28;20250;-68
2023/04/19 03:42:34;;;;;;;3.28;3.08;;;10.90;99.90;;;;;;5079992;28;20214;-68
2023/04/19 03:45:02;;;;;;;3.15;2.95;;;11.00;99.90;;;;;;5080979;28;20251;-67
2023/04/19 03:47:29;;;;;;;3.25;3.00;;;11.00;99.90;;;;;;5077645;28;20288;-68
2023/04/19 03:49:56;;;;;;;2.92;2.72;;;11.00;99.90;;;;;;5082070;28;20254;-67
2023/04/19 03:52:24;;;;;;;3.47;3.17;;;11.10;99.90;;;;;;5078698;28;20190;-69
2023/04/19 03:54:51;;;;;;;3.17;2.88;;;11.10;99.90;;;;;;5081525;28;20221;-69
2023/04/19 03:57:19;;;;;;;3.58;3.30;;;11.10;99.90;;;;;;5076727;28;20738;-68
2023/04/19 03:59:46;;;;;;;3.33;3.03;;;11.10;99.90;;;;;;5079420;28;20265;-68
2023/04/19 04:02:13;;;;;;;3.55;3.25;;;11.10;99.90;;;;;;5081240;28;20296;-67
2023/04/19 04:04:40;;;;;;;3.88;3.58;;;11.00;99.90;;;;;;5083681;28;20205;-68
2023/04/19 04:07:07;;;;;;;3.88;3.58;;;11.00;99.90;;;;;;5077158;28;20293;-68
2023/04/19 04:09:34;;;;;;;3.38;3.10;;;11.00;99.90;;;;;;5076388;28;20712;-67
2023/04/19 04:12:01;;;;;;;4.03;2.85;;;11.00;99.90;;;;;;5081150;28;20233;-67
2023/04/19 04:14:30;;;;;;;2.90;2.70;;;11.00;99.90;;;;;;5080749;28;20630;-67
2023/04/19 04:16:57;;;;;;;3.00;2.80;;;11.00;99.90;;;;;;5077442;28;20202;-67
2023/04/19 04:19:24;;;;;;;2.75;2.55;;;11.00;99.90;;;;;;5074824;28;20309;-67
2023/04/19 04:21:51;;;;;;;2.55;2.40;;;11.00;99.90;;;;;;5073597;28;20224;-68
2023/04/19 04:24:19;;;;;;;2.35;2.22;;;11.00;99.90;;;;;;5078051;28;20239;-67
2023/04/19 04:26:46;;;;;;;2.58;2.47;;;11.00;99.90;;;;;;5078970;28;22122;-67
2023/04/19 04:29:13;;;;;;;2.40;2.30;;;11.00;99.90;;;;;;5075119;28;20261;-67
2023/04/19 04:31:41;;;;;;;2.40;2.30;;;11.00;99.90;;;;;;5078063;28;20212;-67
2023/04/19 04:34:09;;;;;;;2.50;2.33;;;10.90;99.90;;;;;;5079479;28;20294;-67
2023/04/19 04:36:36;;;;;;;2.75;2.55;;;10.80;99.90;;;;;;5077979;28;20208;-67
2023/04/19 04:39:03;;;;;;;2.38;2.28;;;10.90;99.90;;;;;;5073830;28;20221;-67
2023/04/19 04:41:30;;;;;;;2.63;2.45;;;10.90;99.90;;;;;;5078229;28;20268;-69
2023/04/19 04:43:59;;;;;;;2.30;2.20;;;10.90;99.90;;;;;;5074117;28;20202;-69
2023/04/19 04:46:26;;;;;;;2.20;2.10;;;10.90;99.90;;;;;;5078492;28;20639;-70
2023/04/19 04:48:54;;;;;;;2.15;2.05;;;11.00;99.90;;;;;;5077078;28;20285;-68
2023/04/19 04:51:21;;;;;;;2.05;1.95;;;11.00;99.90;;;;;;5079067;28;20293;-70
2023/04/19 04:53:48;;;;;;;2.17;2.08;;;11.10;99.90;;;;;;5077644;28;20696;-69
2023/04/19 04:56:15;;;;;;;2.63;2.42;;;11.10;99.90;;;;;;5078238;28;20193;-67
2023/04/19 04:58:42;;;;;;;2.78;2.53;;;11.10;99.90;;;;;;5074803;28;20320;-67
2023/04/19 05:01:09;;;;;;;2.35;2.15;;;11.10;99.90;;;;;;5079017;28;20194;-67
2023/04/19 05:03:36;;;;;;;2.40;2.30;;;11.10;99.90;;;;;;5078252;28;20198;-67
2023/04/19 05:06:04;;;;;;;2.00;1.90;;;11.10;99.90;;;;;;5076861;28;20236;-68
2023/04/19 05:08:31;;;;;;;2.55;2.45;;;11.20;99.90;;;;;;5075481;28;20294;-67
2023/04/19 05:10:58;;;;;;;1.88;1.77;;;11.30;99.90;;;;;;5078107;28;20739;-67
2023/04/19 05:13:25;;;;;;;2.00;1.90;;;11.40;99.90;;;;;;5078205;28;20812;-67
2023/04/19 05:15:52;;;;;;;2.42;2.33;;;11.40;99.90;;;;;;5072443;28;20237;-69
2023/04/19 05:18:19;;;;;;;2.10;1.92;;;11.50;99.90;;;;;;5079055;28;20209;-67
2023/04/19 05:20:47;;;;;;;2.45;2.25;;;11.50;99.90;;;;;;5079715;28;20858;-68
2023/04/19 05:23:15;;;;;;;2.05;1.95;;;11.60;99.90;;;;;;5077547;28;20221;-67
2023/04/19 05:25:42;;;;;;;2.08;1.92;;;11.50;99.90;;;;;;5076570;28;20753;-67
2023/04/19 05:28:09;;;;;;;1.90;1.80;;;11.60;99.90;;;;;;5075313;28;20225;-68
2023/04/19 05:30:36;;;;;;;2.00;1.90;;;11.60;99.90;;;;;;5078886;28;20217;-67
2023/04/19 05:33:03;;;;;;;1.90;1.80;;;11.70;99.90;;;;;;5081021;28;20281;-67
2023/04/19 05:35:30;;;;;;;1.90;1.80;;;11.70;99.90;;;;;;5079749;28;20202;-68
2023/04/19 05:37:57;;;;;;;2.28;2.17;;;11.80;99.90;;;;;;5082069;28;20285;-67
2023/04/19 05:40:26;;;;;;;2.05;1.95;;;11.80;99.90;;;;;;5080181;28;20213;-67
2023/04/19 05:42:52;;;;;;;2.53;2.33;;;11.80;99.90;;;;;;5079180;28;20290;-67
2023/04/19 05:45:21;;;;;;;2.42;2.08;;;11.80;99.90;;;;;;5078039;28;20198;-69
2023/04/19 05:47:48;;;;;;;2.00;1.90;;;11.80;99.90;;;;;;5077818;28;20276;-67
2023/04/19 05:50:16;;;;;;;2.20;2.10;;;11.80;99.90;;;;;;5080995;28;20305;-68
2023/04/19 05:52:43;;;;;;;2.28;2.10;;;11.80;99.90;;;;;;5078550;28;20198;-67
2023/04/19 05:55:10;;;;;;;2.00;1.90;;;11.80;99.90;;;;;;5080648;28;20201;-68
2023/04/19 05:57:39;;;;;;;2.15;2.05;;;11.90;99.90;;;;;;5075928;28;20285;-68
2023/04/19 06:00:08;;;;;;;3.20;2.03;;;11.90;99.90;;;;;;5081771;28;20282;-67
2023/04/19 06:02:35;;;;;;;2.03;1.92;;;12.00;99.90;;;;;;5075862;28;20209;-67
2023/04/19 06:05:03;;;;;;;2.28;2.08;;;12.10;99.90;;;;;;5080654;28;20197;-67
2023/04/19 06:07:30;;;;;;;2.10;2.00;;;12.20;99.90;;;;;;5079854;28;20197;-67
2023/04/19 06:09:57;;;;;;;2.20;2.00;;;12.20;99.90;;;;;;5078719;28;20314;-67
2023/04/19 06:12:24;;;;;;;2.40;2.20;;;12.50;99.90;;;;;;5074064;28;20222;-67
2023/04/19 06:14:52;;;;;;;2.92;2.72;;;12.60;99.90;;;;;;5077376;28;20479;-67
2023/04/19 06:17:23;;;;;;;3.22;2.38;;;12.70;99.90;;;;;;5082279;28;20672;-67
2023/04/19 06:19:50;;;;;;;3.40;2.28;;;12.90;99.90;;;;;;5081446;28;20247;-68
2023/04/19 06:22:17;;;;;;;4.15;2.67;;;13.10;99.90;;;;;;5075952;28;20246;-68
2023/04/19 06:24:44;;;;;;;4.40;2.70;;;13.20;99.90;;;;;;5077459;28;20202;-68
2023/04/19 06:27:11;;;;;;;2.42;2.22;;;13.20;99.90;;;;;;5080214;28;20208;-68
2023/04/19 06:29:38;;;;;;;3.10;2.72;;;13.20;99.90;;;;;;5077847;28;20274;-68
2023/04/19 06:32:07;;;;;;;2.70;2.50;;;13.10;99.90;;;;;;5081845;28;20667;-68
2023/04/19 06:34:33;;;;;;;4.05;2.65;;;13.40;99.90;;;;;;5076635;28;20198;-68
2023/04/19 06:37:00;;;;;;;2.88;2.67;;;13.50;99.90;;;;;;5081289;28;20206;-68
2023/04/19 06:39:27;;;;;;;3.58;2.58;;;13.80;99.90;;;;;;5079611;28;20304;-68
2023/04/19 06:41:54;;;;;;;2.65;2.42;;;14.00;99.90;;;;;;5075121;28;20202;-67
2023/04/19 06:44:21;;;;;;;2.35;2.15;;;14.10;99.90;;;;;;5081858;28;20202;-67
2023/04/19 06:46:48;;;;;;;4.45;2.80;;;14.50;99.90;;;;;;5085478;28;20296;-68
2023/04/19 06:49:16;;;;;;;2.55;2.35;;;15.00;99.90;;;;;;5083928;28;20268;-68
2023/04/19 06:51:43;;;;;;;2.40;2.20;;;15.30;99.90;;;;;;5081520;28;20237;-68
2023/04/19 06:54:10;;;;;;;2.35;2.15;;;15.40;99.90;;;;;;5080244;28;20256;-69
2023/04/19 06:56:44;;;;;;;2.67;2.47;;;15.80;99.90;;;;;;5078688;28;20908;-68
2023/04/19 06:59:11;;;;;;;4.63;2.92;;;16.10;99.90;;;;;;5078213;28;20772;-69
2023/04/19 07:01:38;;;;;;;4.03;2.42;;;16.30;99.90;;;;;;5077211;28;20264;-68
2023/04/19 07:04:06;;;;;;;4.18;2.50;;;16.20;99.90;;;;;;5084492;28;20221;-68
2023/04/19 07:06:34;;;;;;;3.15;2.30;;;16.10;99.90;;;;;;5084204;28;20684;-69
2023/04/19 07:09:01;;;;;;;2.58;2.38;;;16.40;99.90;;;;;;5084887;28;20210;-68
2023/04/19 07:11:28;;;;;;;2.17;1.98;;;16.70;99.90;;;;;;5081143;28;20250;-69
2023/04/19 07:13:55;;;;;;;1.95;1.85;;;16.70;99.90;;;;;;5074232;28;20829;-68
2023/04/19 07:16:22;;;;;;;1.92;1.83;;;16.60;99.90;;;;;;5078718;28;20197;-68
2023/04/19 07:18:49;;;;;;;2.28;2.08;;;16.60;99.90;;;;;;5074670;28;20197;-69
2023/04/19 07:21:16;;;;;;;1.90;1.80;;;16.50;99.90;;;;;;5080349;28;20234;-68
2023/04/19 07:23:44;;;;;;;1.92;1.80;;;16.30;99.90;;;;;;5074960;28;21079;-68
2023/04/19 07:26:11;;;;;;;2.08;1.80;;;16.10;99.90;;;;;;5079601;28;20201;-68
2023/04/19 07:28:39;;;;;;;2.28;2.08;;;16.50;99.90;;;;;;5075930;28;20201;-68
2023/04/19 07:31:06;;;;;;;2.60;2.40;;;16.70;99.90;;;;;;5075569;28;20194;-69
2023/04/19 07:33:33;;;;;;;1.92;1.83;;;16.90;99.90;;;;;;5076783;28;20284;-68
2023/04/19 07:36:00;;;;;;;2.47;2.13;;;17.00;99.90;;;;;;5073836;28;20629;-70
2023/04/19 07:38:27;;;;;;;3.60;1.90;;;17.20;99.90;;;;;;5074388;28;20236;-68
2023/04/19 07:40:55;;;;;;;2.00;1.80;;;17.20;99.90;;;;;;5075576;28;20279;-68
2023/04/19 07:43:22;;;;;;;2.00;1.90;;;17.30;99.90;;;;;;5076819;28;20294;-68
2023/04/19 07:45:49;;;;;;;2.00;1.90;;;17.50;99.90;;;;;;5077071;28;20205;-69
2023/04/19 07:48:16;;;;;;;1.95;1.85;;;17.70;99.90;;;;;;5078341;28;20286;-70
2023/04/19 07:50:43;;;;;;;2.33;1.73;;;18.00;99.90;;;;;;5077849;28;20282;-69
2023/04/19 07:53:10;;;;;;;2.38;1.83;;;18.10;99.90;;;;;;5077947;28;20284;-69
2023/04/19 07:55:37;;;;;;;1.80;1.70;;;18.20;99.90;;;;;;5076919;28;20201;-69
2023/04/19 07:58:05;;;;;;;3.10;1.90;;;18.20;99.90;;;;;;5072613;28;20618;-69
2023/04/19 08:00:33;;;;;;;1.98;1.80;;;18.30;99.90;;;;;;5077958;28;20254;-69
2023/04/19 08:03:00;;;;;;;2.05;1.95;;;18.40;99.90;;;;;;5078767;28;20259;-68
2023/04/19 08:05:27;;;;;;;2.10;1.90;;;18.60;99.90;;;;;;5076760;28;20198;-69
2023/04/19 08:07:54;;;;;;;1.88;1.77;;;18.50;99.90;;;;;;5077126;28;20205;-68
2023/04/19 08:10:21;;;;;;;1.65;1.55;;;18.60;99.90;;;;;;5076908;28;20245;-68
2023/04/19 08:12:48;;;;;;;1.80;1.70;;;18.90;99.90;;;;;;5073794;28;20250;-69
2023/04/19 08:15:17;;;;;;;1.77;1.67;;;19.20;99.90;;;;;;5072651;28;20617;-70
2023/04/19 08:17:44;;;;;;;2.00;1.90;;;19.40;99.30;;;;;;5076043;28;20308;-68
2023/04/19 08:20:12;;;;;;;1.80;1.70;;;19.50;98.90;;;;;;5078736;28;20799;-68
2023/04/19 08:22:39;;;;;;;1.92;1.70;;;19.50;98.70;;;;;;5075085;28;20299;-68
2023/04/19 08:25:08;;;;;;;1.80;1.70;;;19.60;98.80;;;;;;5073934;28;20759;-69
2023/04/19 08:27:36;;;;;;;1.67;1.58;;;19.70;98.70;;;;;;5076822;28;20247;-69
2023/04/19 08:30:04;;;;;;;1.63;1.52;;;20.10;99.20;;;;;;5069256;28;20252;-69
2023/04/19 08:32:32;;;;;;;1.55;1.45;;;20.30;98.40;;;;;;5078050;28;20206;-68
2023/04/19 08:34:59;;;;;;;1.52;1.45;;;20.30;96.80;;;;;;5076407;28;20297;-69
2023/04/19 08:37:26;;;;;;;1.85;1.75;;;20.30;96.20;;;;;;5070214;28;20196;-69
2023/04/19 08:39:53;;;;;;;1.50;1.40;;;19.90;95.80;;;;;;5074384;28;20302;-68
2023/04/19 08:42:20;;;;;;;1.90;1.80;;;20.20;97.00;;;;;;5071835;28;20293;-68
2023/04/19 08:44:48;;;;;;;3.88;2.15;;;19.80;96.80;;;;;;5072677;28;20197;-68
2023/04/19 08:47:16;;;;;;;2.05;1.75;;;19.40;97.80;;;;;;5074670;28;20237;-68
2023/04/19 08:49:45;;;;;;;1.88;1.58;;;18.70;97.80;;;;;;5074996;28;20253;-68
2023/04/19 08:52:13;;;;;;;1.60;1.50;;;18.50;98.70;;;;;;5071183;28;20201;-69
2023/04/19 08:54:41;;;;;;;4.43;1.70;;;18.50;98.70;;;;;;5073919;28;20189;-69
2023/04/19 08:57:11;;;;;;;1.80;1.70;;;18.50;99.20;;;;;;5071929;28;20197;-69
2023/04/19 08:59:38;;;;;;;5.45;2.53;;;18.50;98.40;;;;;;5073532;28;20304;-69
2023/04/19 09:02:05;;;;;;;1.55;1.45;;;18.50;98.00;;;;;;5071350;28;20659;-69
2023/04/19 09:04:32;;;;;;;2.63;1.50;;;18.30;98.80;;;;;;5074744;28;20309;-69
2023/04/19 09:07:01;;;;;;;2.20;1.63;;;18.20;98.10;;;;;;5074527;28;20260;-70
2023/04/19 09:09:29;;;;;;;1.85;1.73;;;18.00;98.30;;;;;;5073750;28;20218;-69
2023/04/19 09:11:58;;;;;;;2.10;1.80;;;18.40;98.00;;;;;;5072251;28;20229;-69
2023/04/19 09:14:27;;;;;;;1.90;1.80;;;19.20;98.20;;;;;;5074454;28;20224;-68
2023/04/19 09:16:54;;;;;;;4.20;1.90;;;19.60;97.30;;;;;;5073486;28;20705;-68
2023/04/19 09:19:21;;;;;;;3.40;1.63;;;20.00;96.80;;;;;;5067840;28;20249;-69
2023/04/19 09:21:50;;;;;;;7.22;2.75;;;20.00;95.80;;;;;;5070428;28;20280;-69
2023/04/19 09:24:18;;;;;;;3.33;2.00;;;19.90;96.20;;;;;;5071162;28;20669;-68
2023/04/19 09:26:54;;;;;;;2.30;1.83;;;19.50;95.60;;;;;;5069219;28;20281;-68
2023/04/19 09:29:21;;;;;;;7.25;2.80;;;19.30;95.80;;;;;;5072078;28;20217;-68
2023/04/19 09:31:57;;;;;;;3.75;2.67;;;19.20;96.20;;;;;;5071435;28;20289;-68
2023/04/19 09:34:24;;;;;;;3.20;1.63;;;19.10;95.70;;;;;;5070543;28;20200;-68
2023/04/19 09:36:51;;;;;;;8.20;2.47;;;19.10;95.80;;;;;;5070479;28;20201;-69
2023/04/19 09:39:31;;;;;;;2.55;2.22;;;19.10;96.30;;;;;;5070779;28;20220;-68
2023/04/19 09:41:58;;;;;;;4.57;1.83;;;19.10;96.20;;;;;;5073468;28;20688;-69
2023/04/19 09:44:25;;;;;;;3.53;1.50;;;19.00;96.40;;;;;;5072490;28;20799;-69
2023/04/19 09:46:52;;;;;;;3.47;1.90;;;18.80;96.70;;;;;;5072475;28;20197;-69
2023/04/19 09:49:22;;;;;;;2.15;1.80;;;18.40;97.30;;;;;;5074604;28;20280;-69
2023/04/19 09:51:50;;;;;;;2.13;1.80;;;18.10;97.10;;;;;;5074067;28;20270;-69
2023/04/19 09:54:19;;;;;;;3.53;2.33;;;18.00;97.20;;;;;;5072983;28;20683;-69
2023/04/19 09:56:48;;;;;;;4.10;2.47;;;18.20;97.40;;;;;;5067808;28;20300;-70
2023/04/19 09:59:15;;;;;;;4.47;2.60;;;18.30;97.70;;;;;;5073404;28;20286;-69
2023/04/19 10:01:45;;;;;;;42.78;8.45;;;18.20;96.00;;;;;;5075044;28;20292;-69
2023/04/19 10:04:13;;;;;;;7.05;3.15;;;18.10;95.90;;;;;;5075193;28;20217;-69
2023/04/19 10:06:40;;;;;;;14.40;5.63;;;18.00;96.80;;;;;;5072847;28;20284;-69
2023/04/19 10:09:09;;;;;;;11.57;4.00;;;17.90;97.00;;;;;;5071459;28;20267;-69
2023/04/19 10:11:38;;;;;;;30.58;8.82;;;18.00;97.30;;;;;;5072053;28;20232;-69
2023/04/19 10:14:08;;;;;;;20.40;6.28;;;17.90;97.00;;;;;;5070537;28;20201;-69
2023/04/19 10:16:37;;;;;;;8.98;4.13;;;17.80;97.10;;;;;;5073565;28;20300;-68
2023/04/19 10:19:08;;;;;;;7.60;3.40;;;18.00;97.20;;;;;;5073403;28;20293;-68
2023/04/19 10:21:37;;;;;;;2.05;1.80;;;18.30;97.90;;;;;;5076400;28;20729;-68
2023/04/19 10:24:04;;;;;;;2.03;1.83;;;18.40;96.40;;;;;;5076786;28;20749;-68
2023/04/19 10:27:16;;;;;;;1.80;1.70;;;18.60;95.70;;;;;;5075918;28;20225;-67
2023/04/19 10:29:57;;;;;;;2.05;1.70;;;18.80;95.90;;;;;;5062188;28;20755;-69
2023/04/19 10:32:26;;;;;;;1.67;1.58;;;19.00;95.90;;;;;;5078216;28;20229;-68
2023/04/19 10:34:53;;;;;;;1.58;1.48;;;18.90;95.90;;;;;;5076016;28;20276;-70
2023/04/19 10:37:23;;;;;;;1.52;1.30;;;18.80;96.50;;;;;;5073523;28;20197;-68
2023/04/19 10:39:51;;;;;;;1.88;1.30;;;18.60;96.50;;;;;;5075294;28;20301;-68
2023/04/19 10:42:18;;;;;;;2.65;1.63;;;18.50;97.00;;;;;;5076081;28;20202;-68
2023/04/19 10:45:18;;;;;;;1.38;1.27;;;18.50;96.90;;;;;;5072728;28;20290;-70
2023/04/19 10:47:46;;;;;;;1.35;1.35;;;18.50;95.90;;;;;;5077641;28;20205;-70
2023/04/19 10:50:17;;;;;;;1.45;1.35;;;18.60;96.80;;;;;;5078720;28;20336;-71
2023/04/19 10:52:43;;;;;;;3.08;1.98;;;18.40;96.50;;;;;;5074623;28;20193;-71
2023/04/19 10:55:15;;;;;;;2.67;1.52;;;18.30;97.40;;;;;;5077107;28;20218;-70
2023/04/19 10:58:01;;;;;;;2.20;1.50;;;18.20;96.40;;;;;;5074373;28;20201;-70
2023/04/19 11:00:30;;;;;;;1.58;1.48;;;18.20;97.00;;;;;;5079331;28;20217;-70
2023/04/19 11:02:59;;;;;;;1.52;1.42;;;18.20;97.00;;;;;;5080157;28;20730;-70
2023/04/19 11:05:26;;;;;;;2.85;1.45;;;18.40;97.10;;;;;;5076446;28;20218;-70
2023/04/19 11:07:53;;;;;;;1.40;1.30;;;18.40;96.70;;;;;;5072784;28;20202;-70
2023/04/19 11:10:29;;;;;;;2.40;1.60;;;18.50;97.10;;;;;;5079408;28;20270;-70
2023/04/19 11:12:56;;;;;;;3.65;1.85;;;18.60;97.30;;;;;;5076997;28;20674;-66
2023/04/19 11:15:23;;;;;;;2.40;1.80;;;18.60;96.30;;;;;;5078564;28;20205;-70
2023/04/19 11:17:51;;;;;;;1.52;1.42;;;18.70;96.00;;;;;;5078767;28;20212;-70
2023/04/19 11:20:23;;;;;;;1.65;1.55;;;18.80;96.10;;;;;;5084178;28;20228;-70
2023/04/19 11:22:50;;;;;;;1.45;1.35;;;18.80;96.00;;;;;;5081149;28;20281;-69
2023/04/19 11:25:19;;;;;;;1.58;1.30;;;18.80;96.10;;;;;;5078256;28;20241;-70
2023/04/19 11:27:48;;;;;;;2.80;1.70;;;19.00;95.50;;;;;;5072299;28;20206;-70
2023/04/19 11:30:18;;;;;;;1.40;1.27;;;19.10;96.20;;;;;;5079070;28;20702;-70
2023/04/19 11:32:47;;;;;;;1.50;1.40;;;19.10;94.80;;;;;;5078899;28;20361;-70
2023/04/19 11:35:14;;;;;;;1.40;1.30;;;19.20;95.60;;;;;;5076949;28;20194;-70
2023/04/19 11:37:42;;;;;;;1.73;1.40;;;19.50;95.50;;;;;;5076584;28;20205;-68
2023/04/19 11:40:14;;;;;;;1.60;1.50;;;19.60;95.10;;;;;;5077893;28;20731;-70
2023/04/19 11:42:41;;;;;;;1.50;1.40;;;19.60;94.40;;;;;;5080693;28;20292;-70
2023/04/19 11:45:10;;;;;;;1.52;1.42;;;19.70;94.50;;;;;;5076560;28;20275;-69
2023/04/19 11:47:47;;;;;;;1.40;1.30;;;19.80;93.60;;;;;;5074746;28;20285;-71
2023/04/19 11:50:34;;;;;;;1.40;1.30;;;19.70;93.10;;;;;;5082143;28;20313;-70
2023/04/19 11:53:12;;;;;;;1.55;1.42;;;19.80;94.00;;;;;;5080819;28;20247;-70
2023/04/19 11:55:43;;;;;;;2.10;1.30;;;19.70;92.70;;;;;;5079745;28;20197;-70
2023/04/19 11:58:24;;;;;;;1.88;1.33;;;19.60;92.80;;;;;;5078898;28;20205;-70
2023/04/19 12:00:51;;;;;;;1.00;1.00;;;19.60;93.20;;;;;;5076606;28;20231;-71
2023/04/19 12:03:21;;;;;;;1.60;1.50;;;19.60;92.90;;;;;;5074956;28;20728;-70
2023/04/19 12:05:55;;;;;;;1.73;1.20;;;19.60;93.40;;;;;;5074809;28;20209;-69
2023/04/19 12:08:35;;;;;;;1.58;1.38;;;19.50;92.80;;;;;;5078608;28;20281;-70
2023/04/19 12:11:03;;;;;;;1.48;1.38;;;19.40;93.00;;;;;;5073658;28;20229;-70
2023/04/19 12:13:30;;;;;;;1.20;1.10;;;19.40;92.50;;;;;;5077979;28;20209;-70
2023/04/19 12:15:58;;;;;;;1.40;1.30;;;19.20;92.50;;;;;;5078485;28;20778;-70
2023/04/19 12:18:25;;;;;;;1.20;1.10;;;19.30;92.60;;;;;;5077674;28;20247;-70
2023/04/19 12:20:53;;;;;;;1.40;1.33;;;19.30;92.70;;;;;;5074749;28;20220;-70
2023/04/19 12:23:21;;;;;;;1.25;1.25;;;19.30;92.30;;;;;;5075430;28;20198;-71
2023/04/19 12:25:49;;;;;;;1.25;1.10;;;19.30;92.50;;;;;;5079183;28;20249;-70
2023/04/19 12:28:16;;;;;;;1.10;1.10;;;19.30;92.30;;;;;;5078088;28;20209;-70
2023/04/19 12:30:43;;;;;;;1.60;1.33;;;19.50;92.00;;;;;;5078603;28;20225;-69
2023/04/19 12:33:11;;;;;;;1.10;1.10;;;19.50;91.20;;;;;;5076307;28;20685;-71
2023/04/19 12:35:38;;;;;;;1.20;1.10;;;19.50;91.70;;;;;;5074076;28;20492;-70
2023/04/19 12:38:05;;;;;;;1.10;1.10;;;19.50;91.40;;;;;;5075464;28;20198;-69
2023/04/19 12:40:32;;;;;;;2.90;1.15;;;19.50;91.20;;;;;;5074542;28;20664;-69
2023/04/19 12:43:00;;;;;;;1.50;1.10;;;19.60;91.00;;;;;;5075939;28;20215;-70
2023/04/19 12:45:27;;;;;;;1.05;0.88;;;19.80;90.80;;;;;;5076361;28;20213;-70
2023/04/19 12:47:55;;;;;;;3.20;1.30;;;19.80;90.20;;;;;;5071861;28;20585;-70
2023/04/19 12:50:22;;;;;;;1.02;1.02;;;19.90;90.30;;;;;;5071867;28;20723;-71